Clay City, Illinois
Current Conditions -  °F | °C
As of 10:35 AM on Sunday 21 Dec 2014 (Local Time) from KFOA Reporting Station
Clear Clear  
Wind Chill: 31°   Ceiling: Unl
Heat Index: 37°   Visibility: 7mi
Dew Point: 30°   Wind: 8mph
Humidity: 75%   Direction: 150°SSE
Pressure: 30.25"   Gusts: NA
Location:  38.69°N, 88.35°W
Report Text: KFOA 211635Z AUTO 15007KT 7SM CLR 03/M01 A3025 RMK AO2 T00281013
Loading
Personal Weather Stations






























Interactive Weather Map New forecast layout! Learn more

10-Day Weather Forecast

Advertisements
Track Severe Weather on mobile